createdAt,value
2023-02-06T02:12:56.059Z,-4.40
2023-02-06T02:15:37.744Z,-4.50
2023-02-06T02:18:20.605Z,-4.20
2023-02-06T02:21:27.604Z,-4.20
2023-02-06T02:24:05.466Z,-4.30
2023-02-06T02:27:22.876Z,-4.30
2023-02-06T02:30:32.392Z,-4.50
2023-02-06T02:33:32.629Z,-4.30
2023-02-06T02:36:08.442Z,-4.30
2023-02-06T02:38:52.441Z,-4.50
2023-02-06T02:41:28.683Z,-4.60
2023-02-06T02:44:03.844Z,-4.30
2023-02-06T02:46:38.070Z,-4.30
2023-02-06T02:49:10.849Z,-4.50
2023-02-06T02:51:42.406Z,-4.60
2023-02-06T02:54:11.807Z,-4.60
2023-02-06T02:56:41.548Z,-4.50
2023-02-06T02:59:24.474Z,-4.50
2023-02-06T03:01:59.607Z,-4.60
2023-02-06T03:04:36.339Z,-4.70
2023-02-06T03:07:14.175Z,-4.70
2023-02-06T03:09:54.960Z,-4.60
2023-02-06T03:12:34.509Z,-4.50
2023-02-06T03:15:21.007Z,-4.80
2023-02-06T03:17:55.465Z,-4.70
2023-02-06T03:20:25.240Z,-4.70
2023-02-06T03:22:58.550Z,-4.60
2023-02-06T03:25:32.700Z,-4.70
2023-02-06T03:28:03.781Z,-4.60
2023-02-06T03:30:34.683Z,-4.80
2023-02-06T03:33:07.726Z,-4.80
2023-02-06T03:35:38.700Z,-4.70
2023-02-06T03:38:10.471Z,-4.80
2023-02-06T03:40:42.677Z,-5.00
2023-02-06T03:43:18.980Z,-5.40
2023-02-06T03:45:51.432Z,-5.10
2023-02-06T03:48:25.625Z,-5.00
2023-02-06T03:50:56.566Z,-5.00
2023-02-06T03:53:29.118Z,-4.90
2023-02-06T03:56:07.219Z,-5.10
2023-02-06T03:58:36.437Z,-5.10
2023-02-06T04:01:08.317Z,-4.90
2023-02-06T04:03:37.528Z,-5.00
2023-02-06T04:06:06.762Z,-4.90
2023-02-06T04:08:37.308Z,-5.00
2023-02-06T04:11:06.611Z,-4.90
2023-02-06T04:13:36.208Z,-4.80
2023-02-06T04:16:05.864Z,-4.80
2023-02-06T04:18:34.990Z,-4.70
2023-02-06T04:21:07.810Z,-4.60
2023-02-06T04:23:38.561Z,-4.80
2023-02-06T04:26:07.689Z,-4.10
2023-02-06T04:28:36.987Z,-4.10
2023-02-06T04:31:06.510Z,-4.00
2023-02-06T04:33:35.642Z,-4.00
2023-02-06T04:36:04.712Z,-3.70
2023-02-06T04:38:33.933Z,-3.50
2023-02-06T04:41:07.432Z,-3.50
2023-02-06T04:43:36.901Z,-3.70
2023-02-06T04:46:06.993Z,-3.70
2023-02-06T04:48:36.312Z,-3.60
2023-02-06T04:51:05.988Z,-3.50
2023-02-06T04:53:36.063Z,-3.70
2023-02-06T04:56:07.915Z,-3.60
2023-02-06T04:58:37.856Z,-3.30
2023-02-06T05:01:07.043Z,-3.40
2023-02-06T05:03:36.128Z,-3.30
2023-02-06T05:06:06.582Z,-3.20
2023-02-06T05:08:35.849Z,-3.50
2023-02-06T05:11:07.229Z,-3.20
2023-02-06T05:13:37.898Z,-3.20
2023-02-06T05:16:08.372Z,-3.10
2023-02-06T05:18:38.724Z,-3.20
2023-02-06T05:21:09.010Z,-3.10
2023-02-06T05:23:38.160Z,-2.90
2023-02-06T05:26:11.737Z,-2.90
2023-02-06T05:28:40.848Z,-2.90
2023-02-06T05:31:10.261Z,-2.80
2023-02-06T05:33:39.344Z,-2.80
2023-02-06T05:36:09.964Z,-2.70
2023-02-06T05:38:39.056Z,-2.50
2023-02-06T05:41:10.027Z,-2.70
2023-02-06T05:43:38.980Z,-2.70
2023-02-06T05:46:09.013Z,-2.70
2023-02-06T05:48:38.792Z,-2.80
2023-02-06T05:51:08.308Z,-3.00
2023-02-06T05:53:37.658Z,-2.40
2023-02-06T05:56:07.742Z,-2.60
2023-02-06T05:58:38.313Z,-2.50
2023-02-06T06:01:07.478Z,-2.50
2023-02-06T06:03:38.532Z,-2.50
2023-02-06T06:06:08.520Z,-2.20
2023-02-06T06:08:38.038Z,-2.50
2023-02-06T06:11:07.962Z,-2.40
2023-02-06T06:13:39.728Z,-2.30
2023-02-06T06:16:09.231Z,-2.40
2023-02-06T06:18:38.829Z,-2.30
2023-02-06T06:21:08.265Z,-2.40
2023-02-06T06:23:37.376Z,-2.20
2023-02-06T06:26:06.787Z,-2.70
2023-02-06T06:28:36.357Z,-2.30
2023-02-06T06:31:09.638Z,-2.40
2023-02-06T06:33:38.812Z,-2.20
2023-02-06T06:36:09.910Z,-2.20
2023-02-06T06:38:39.551Z,-2.10
2023-02-06T06:41:08.902Z,-2.10
2023-02-06T06:43:37.972Z,-2.10
2023-02-06T06:46:10.455Z,-2.00
2023-02-06T06:48:40.611Z,-1.90
2023-02-06T06:51:10.560Z,-2.20
2023-02-06T06:53:40.430Z,-1.80
2023-02-06T06:56:12.145Z,-1.60
2023-02-06T06:58:41.394Z,-1.70
2023-02-06T07:01:12.317Z,-1.60
2023-02-06T07:03:44.433Z,-1.60
2023-02-06T07:06:13.782Z,-1.40
2023-02-06T07:08:43.827Z,-1.50
2023-02-06T07:11:14.879Z,-1.40
2023-02-06T07:13:44.381Z,-1.30
2023-02-06T07:16:15.339Z,-1.30
2023-02-06T07:18:44.578Z,-1.30
2023-02-06T07:21:16.332Z,-1.10
2023-02-06T07:23:45.455Z,-1.00
2023-02-06T07:26:14.880Z,-0.90
2023-02-06T07:28:44.022Z,-0.70
2023-02-06T07:31:14.905Z,-0.70
2023-02-06T07:33:44.014Z,-0.50
2023-02-06T07:36:14.145Z,-0.50
2023-02-06T07:38:43.647Z,-0.50
2023-02-06T07:41:13.300Z,-0.30
2023-02-06T07:43:42.536Z,-0.50
2023-02-06T07:46:12.144Z,-0.30
2023-02-06T07:48:42.917Z,-0.40
2023-02-06T07:51:14.488Z,-0.20
2023-02-06T07:53:43.802Z,-0.10
2023-02-06T07:56:14.980Z,-0.10
2023-02-06T07:58:44.472Z,0.10
2023-02-06T08:01:15.048Z,0.10
2023-02-06T08:03:46.084Z,0.10
2023-02-06T08:06:16.869Z,0.30
2023-02-06T08:08:46.564Z,0.20
2023-02-06T08:11:20.262Z,0.40
2023-02-06T08:13:49.889Z,0.40
2023-02-06T08:16:20.470Z,0.70
2023-02-06T08:18:51.714Z,0.90
2023-02-06T08:21:22.711Z,0.90
2023-02-06T08:23:56.513Z,1.00
2023-02-06T08:26:27.436Z,0.90
2023-02-06T08:28:57.516Z,1.10
2023-02-06T08:31:30.030Z,1.20
2023-02-06T08:34:00.987Z,1.40
2023-02-06T08:36:32.220Z,1.30
2023-02-06T08:39:02.654Z,1.40
2023-02-06T08:41:37.363Z,1.50
2023-02-06T08:44:12.119Z,1.80
2023-02-06T08:46:41.893Z,1.90
2023-02-06T08:49:15.365Z,1.90
2023-02-06T08:51:44.620Z,2.10
2023-02-06T08:54:16.158Z,1.90
2023-02-06T08:56:45.713Z,2.20
2023-02-06T08:59:16.674Z,2.30
2023-02-06T09:01:46.946Z,2.40
2023-02-06T09:04:19.723Z,2.30
2023-02-06T09:06:49.567Z,2.50
2023-02-06T09:09:18.920Z,2.50
2023-02-06T09:11:48.395Z,2.40
2023-02-06T09:14:19.652Z,2.60
2023-02-06T09:16:48.971Z,2.60
2023-02-06T09:19:20.115Z,2.90
2023-02-06T09:21:49.202Z,2.90
2023-02-06T09:24:18.501Z,2.90
2023-02-06T09:26:59.334Z,2.90
2023-02-06T09:29:32.257Z,3.10
2023-02-06T09:32:01.885Z,3.20
2023-02-06T09:34:32.871Z,3.20
2023-02-06T09:37:04.772Z,3.20
2023-02-06T09:39:34.120Z,3.20
2023-02-06T09:42:08.510Z,3.30
2023-02-06T09:44:42.387Z,3.20
2023-02-06T09:47:19.719Z,3.20
2023-02-06T09:49:53.348Z,3.40
2023-02-06T09:52:45.876Z,3.50
2023-02-06T09:55:23.756Z,3.40
2023-02-06T09:57:59.266Z,3.50
2023-02-06T10:00:40.403Z,3.40
2023-02-06T10:03:34.688Z,3.40
2023-02-06T10:06:19.465Z,3.30
2023-02-06T10:08:57.909Z,3.40
2023-02-06T10:11:39.929Z,3.60
2023-02-06T10:14:19.496Z,3.70
2023-02-06T10:16:53.561Z,3.90
2023-02-06T10:19:31.009Z,4.00
2023-02-06T10:22:04.949Z,4.00
2023-02-06T10:24:41.503Z,4.00
2023-02-06T10:27:14.080Z,4.00
2023-02-06T10:29:44.549Z,4.00
2023-02-06T10:32:27.382Z,4.20
2023-02-06T10:35:21.437Z,4.20
2023-02-06T10:38:18.652Z,4.30
2023-02-06T10:40:55.151Z,4.20
2023-02-06T10:43:37.000Z,4.40
2023-02-06T10:46:23.391Z,4.40
2023-02-06T10:49:04.273Z,4.50
2023-02-06T10:51:35.988Z,4.50
2023-02-06T10:54:13.036Z,4.40
2023-02-06T10:56:45.403Z,4.60
2023-02-06T10:59:24.101Z,4.40
2023-02-06T11:01:59.141Z,4.40
2023-02-06T11:04:36.295Z,4.30
2023-02-06T11:07:10.634Z,4.10
2023-02-06T11:09:41.523Z,4.00
2023-02-06T11:12:24.889Z,4.10
2023-02-06T11:14:55.505Z,4.10
2023-02-06T11:17:28.563Z,4.00
2023-02-06T11:20:05.747Z,3.90
2023-02-06T11:22:44.235Z,4.00
2023-02-06T11:25:27.215Z,4.10
2023-02-06T11:27:57.157Z,4.20
2023-02-06T11:30:32.485Z,4.00
2023-02-06T11:33:05.202Z,3.80
2023-02-06T11:35:39.096Z,3.80
2023-02-06T11:38:16.846Z,3.70
2023-02-06T11:40:57.318Z,3.80
2023-02-06T11:43:27.887Z,3.90
2023-02-06T11:46:19.461Z,3.90
2023-02-06T11:48:49.918Z,3.90
2023-02-06T11:51:19.144Z,3.90
2023-02-06T11:53:58.583Z,4.00
2023-02-06T11:56:31.400Z,4.00
2023-02-06T11:59:08.150Z,3.90
2023-02-06T12:01:45.108Z,4.10
2023-02-06T12:04:24.174Z,4.10
2023-02-06T12:07:00.431Z,4.20
2023-02-06T12:09:30.108Z,4.20
2023-02-06T12:12:05.635Z,4.30
2023-02-06T12:14:39.707Z,4.20
2023-02-06T12:17:24.852Z,4.20
2023-02-06T12:20:01.926Z,3.90
2023-02-06T12:22:37.405Z,3.70
2023-02-06T12:25:06.961Z,3.50
2023-02-06T12:27:40.254Z,3.40
2023-02-06T12:30:28.490Z,3.30
2023-02-06T12:33:06.453Z,3.10
2023-02-06T12:35:44.133Z,3.10
2023-02-06T12:38:22.897Z,3.10
2023-02-06T12:41:04.016Z,3.20
2023-02-06T12:43:37.710Z,3.30
2023-02-06T12:46:14.557Z,3.30
2023-02-06T12:48:49.001Z,3.40
2023-02-06T12:51:21.612Z,3.60
2023-02-06T12:53:59.050Z,3.70
2023-02-06T12:56:32.877Z,3.80
2023-02-06T12:59:19.006Z,3.90
2023-02-06T13:01:55.914Z,4.10
2023-02-06T13:04:27.558Z,4.00
2023-02-06T13:07:01.570Z,3.90
2023-02-06T13:09:33.238Z,3.80
2023-02-06T13:12:25.572Z,3.80
2023-02-06T13:14:58.153Z,3.90
2023-02-06T13:17:29.091Z,3.90
2023-02-06T13:20:07.206Z,4.10
2023-02-06T13:22:46.503Z,4.00
2023-02-06T13:25:49.115Z,3.90
2023-02-06T13:28:47.677Z,3.90
2023-02-06T13:31:34.755Z,3.90
2023-02-06T13:34:09.963Z,3.60
2023-02-06T13:36:53.811Z,3.50
2023-02-06T13:39:35.290Z,3.40
2023-02-06T13:42:34.870Z,3.60
2023-02-06T13:45:06.641Z,3.70
2023-02-06T13:48:14.449Z,3.60
2023-02-06T13:51:18.198Z,3.50
2023-02-06T13:54:28.768Z,3.40
2023-02-06T13:57:41.213Z,3.40
2023-02-06T14:00:21.086Z,3.50
2023-02-06T14:02:53.126Z,3.30
2023-02-06T14:05:28.475Z,3.40
2023-02-06T14:08:17.565Z,3.30
2023-02-06T14:11:14.735Z,3.30
2023-02-06T14:14:06.371Z,3.20
2023-02-06T14:16:45.691Z,2.90
2023-02-06T14:19:26.323Z,2.90
2023-02-06T14:22:02.730Z,3.00
2023-02-06T14:24:48.758Z,3.10
2023-02-06T14:27:30.555Z,2.90
2023-02-06T14:30:09.514Z,2.70
2023-02-06T14:32:48.111Z,2.50
2023-02-06T14:35:50.148Z,2.50
2023-02-06T14:38:48.728Z,2.40
2023-02-06T14:41:20.050Z,2.40
2023-02-06T14:43:52.416Z,2.30
2023-02-06T14:46:22.850Z,2.20
2023-02-06T14:48:55.316Z,2.10
2023-02-06T14:51:28.099Z,2.20
2023-02-06T14:54:00.831Z,2.20
2023-02-06T14:56:34.271Z,2.20
2023-02-06T14:59:18.609Z,2.20
2023-02-06T15:01:52.963Z,2.20
2023-02-06T15:04:26.418Z,2.30
2023-02-06T15:07:19.569Z,2.30
2023-02-06T15:09:59.051Z,2.20
2023-02-06T15:12:32.526Z,2.20
2023-02-06T15:15:28.463Z,2.30
2023-02-06T15:18:21.849Z,2.20
2023-02-06T15:21:22.640Z,2.20
2023-02-06T15:24:23.001Z,2.20
2023-02-06T15:27:00.492Z,2.10
2023-02-06T15:30:04.424Z,2.20
2023-02-06T15:32:39.452Z,2.10
2023-02-06T15:35:44.093Z,2.20
2023-02-06T15:38:19.211Z,2.10
2023-02-06T15:45:35.387Z,2.10
2023-02-06T15:48:13.519Z,2.00
2023-02-06T15:51:12.576Z,2.10
2023-02-06T15:54:21.001Z,2.10
2023-02-06T15:57:07.191Z,2.10
2023-02-06T16:00:31.035Z,2.10
2023-02-06T16:03:56.146Z,2.10
2023-02-06T16:07:02.493Z,2.10
2023-02-06T16:10:24.020Z,2.00
2023-02-06T16:13:07.324Z,2.10
2023-02-06T16:16:09.660Z,2.00
2023-02-06T16:18:45.707Z,2.10
2023-02-06T16:21:27.457Z,2.00
2023-02-06T16:24:18.050Z,2.00
2023-02-06T16:27:19.635Z,1.90
2023-02-06T16:30:35.023Z,2.00
2023-02-06T16:33:34.068Z,2.00
2023-02-06T16:36:44.653Z,2.00
2023-02-06T16:40:04.385Z,2.00
2023-02-06T16:43:29.178Z,2.00
2023-02-06T16:46:25.343Z,2.00
2023-02-06T16:49:14.538Z,2.00
2023-02-06T16:52:41.555Z,2.00
2023-02-06T16:59:06.648Z,2.00
2023-02-06T17:01:50.138Z,1.90
2023-02-06T17:05:20.378Z,2.00
2023-02-06T17:08:43.491Z,2.00
2023-02-06T17:14:54.899Z,2.00
2023-02-06T17:18:09.264Z,1.90
2023-02-06T17:21:15.639Z,1.90
2023-02-06T17:27:10.566Z,1.90
2023-02-06T17:30:29.629Z,1.90
2023-02-06T17:33:38.051Z,1.90
2023-02-06T17:39:50.677Z,1.90
2023-02-06T17:42:29.082Z,2.00
2023-02-06T17:45:39.065Z,1.90
2023-02-06T17:48:56.038Z,1.90
2023-02-06T17:52:09.910Z,1.90
2023-02-06T17:55:39.630Z,2.00
2023-02-06T18:01:22.233Z,1.90
2023-02-06T18:04:24.839Z,1.90
2023-02-06T18:07:42.086Z,2.00
2023-02-06T18:14:44.246Z,1.90
2023-02-06T18:18:11.649Z,1.90
2023-02-06T18:21:40.108Z,1.80
2023-02-06T18:25:17.362Z,1.90
2023-02-06T18:31:03.348Z,1.90
2023-02-06T18:33:52.312Z,1.90
2023-02-06T18:36:23.878Z,2.00
2023-02-06T18:38:56.673Z,2.10
2023-02-06T18:41:43.357Z,2.00
2023-02-06T18:44:15.518Z,2.00
2023-02-06T18:46:46.474Z,2.00
2023-02-06T18:50:15.954Z,2.00
2023-02-06T18:52:45.765Z,2.00
2023-02-06T18:55:17.111Z,2.00
2023-02-06T18:58:51.230Z,1.90
2023-02-06T19:01:24.597Z,1.80
2023-02-06T19:03:56.469Z,1.80
2023-02-06T19:06:30.667Z,1.70
2023-02-06T19:09:01.711Z,1.80
2023-02-06T19:12:17.884Z,1.80
2023-02-06T19:15:42.809Z,1.80
2023-02-06T19:18:17.025Z,1.70
2023-02-06T19:20:48.162Z,1.70
2023-02-06T19:23:18.512Z,1.70
2023-02-06T19:25:49.552Z,1.70
2023-02-06T19:28:21.112Z,1.80
2023-02-06T19:30:51.731Z,1.80
2023-02-06T19:33:29.449Z,1.80
2023-02-06T19:35:59.764Z,1.80
2023-02-06T19:39:06.183Z,1.80
2023-02-06T19:44:58.025Z,1.70
2023-02-06T19:48:04.702Z,1.70
2023-02-06T19:50:37.868Z,1.70
2023-02-06T19:53:08.477Z,1.70
2023-02-06T19:55:53.262Z,1.70
2023-02-06T19:58:23.067Z,1.70
2023-02-06T20:00:56.043Z,1.60
2023-02-06T20:03:27.910Z,1.70
2023-02-06T20:06:05.003Z,1.60
2023-02-06T20:08:36.952Z,1.60
2023-02-06T20:11:09.904Z,1.50
2023-02-06T20:13:41.650Z,1.60
2023-02-06T20:16:18.343Z,1.60
2023-02-06T20:18:48.850Z,1.60
2023-02-06T20:21:29.475Z,1.60
2023-02-06T20:24:01.124Z,1.70
2023-02-06T20:26:36.012Z,1.70
2023-02-06T20:29:08.424Z,1.70
2023-02-06T20:31:40.797Z,1.70
2023-02-06T20:34:12.317Z,1.70
2023-02-06T20:36:44.607Z,1.60
2023-02-06T20:39:15.968Z,1.70
2023-02-06T20:41:52.085Z,1.60
2023-02-06T20:44:22.519Z,1.60
2023-02-06T20:46:52.461Z,1.70
2023-02-06T20:49:28.651Z,1.70
2023-02-06T20:52:01.808Z,1.60
2023-02-06T20:54:32.859Z,1.70
2023-02-06T20:57:03.158Z,1.70
2023-02-06T20:59:33.033Z,1.70
2023-02-06T21:02:03.068Z,1.70
2023-02-06T21:04:34.749Z,1.60
2023-02-06T21:07:06.395Z,1.70
2023-02-06T21:09:35.972Z,1.70
2023-02-06T21:12:07.315Z,1.70
2023-02-06T21:14:37.369Z,1.60
2023-02-06T21:17:10.523Z,1.70
2023-02-06T21:19:40.275Z,1.70
2023-02-06T21:22:12.391Z,1.70
2023-02-06T21:24:42.798Z,1.70
2023-02-06T21:27:11.882Z,1.60
2023-02-06T21:29:41.589Z,1.60
2023-02-06T21:32:14.056Z,1.60
2023-02-06T21:34:44.415Z,1.60
2023-02-06T21:37:17.170Z,1.60
2023-02-06T21:39:47.066Z,1.60
2023-02-06T21:42:16.447Z,1.60
2023-02-06T21:44:45.487Z,1.60
2023-02-06T21:47:14.810Z,1.70
2023-02-06T21:49:44.075Z,1.60
2023-02-06T21:52:14.952Z,1.70
2023-02-06T21:54:44.160Z,1.70
2023-02-06T21:57:13.534Z,1.70
2023-02-06T21:59:42.661Z,1.60
2023-02-06T22:02:12.805Z,1.60
2023-02-06T22:04:41.997Z,1.70
2023-02-06T22:07:12.668Z,1.70
2023-02-06T22:09:43.669Z,1.80
2023-02-06T22:12:14.425Z,1.80
2023-02-06T22:14:43.640Z,1.80
2023-02-06T22:17:12.784Z,1.80
2023-02-06T22:19:41.996Z,1.80
2023-02-06T22:22:13.405Z,1.70
2023-02-06T22:24:44.621Z,1.80
2023-02-06T22:27:13.928Z,1.80
2023-02-06T22:29:43.171Z,1.70
2023-02-06T22:32:12.456Z,1.80
2023-02-06T22:34:41.511Z,1.80
2023-02-06T22:37:10.928Z,1.80
2023-02-06T22:39:40.136Z,1.80
2023-02-06T22:42:10.711Z,1.80
2023-02-06T22:44:39.850Z,1.70
2023-02-06T22:47:09.404Z,1.70
2023-02-06T22:49:38.898Z,1.70
2023-02-06T22:52:28.326Z,1.70
2023-02-06T22:54:57.778Z,1.70
2023-02-06T22:57:30.344Z,1.60
2023-02-06T23:00:01.341Z,1.60
2023-02-06T23:02:31.701Z,1.60
2023-02-06T23:05:00.890Z,1.60
2023-02-06T23:07:31.183Z,1.60
2023-02-06T23:10:00.411Z,1.60
2023-02-06T23:12:31.095Z,1.60
2023-02-06T23:15:00.248Z,1.60
2023-02-06T23:17:30.426Z,1.70
2023-02-06T23:19:59.827Z,1.70
2023-02-06T23:22:31.599Z,1.80
2023-02-06T23:25:00.634Z,1.80
2023-02-06T23:27:31.288Z,1.80
2023-02-06T23:30:01.038Z,1.80
2023-02-06T23:32:30.133Z,1.80
2023-02-06T23:34:59.918Z,1.80
2023-02-06T23:37:29.398Z,1.80
2023-02-06T23:40:00.686Z,1.80
2023-02-06T23:42:31.551Z,1.80
2023-02-06T23:45:00.770Z,1.80
2023-02-06T23:47:29.708Z,1.80
2023-02-06T23:49:58.930Z,1.70
2023-02-06T23:52:28.096Z,1.70
2023-02-06T23:54:57.185Z,1.60
2023-02-06T23:57:26.258Z,1.60
2023-02-06T23:59:56.855Z,1.50
